sensor_id;sensor_type;location;lat;lon;timestamp;P1;durP1;ratioP1;P2;durP2;ratioP2
52438;SDS011;38359;53.150;6.504;2023-07-22T00:02:04;23.77;;;11.57;;
52438;SDS011;38359;53.150;6.504;2023-07-22T00:12:29;24.45;;;10.57;;
52438;SDS011;38359;53.150;6.504;2023-07-22T00:22:55;22.20;;;9.68;;
52438;SDS011;38359;53.150;6.504;2023-07-22T00:33:21;21.17;;;9.60;;
52438;SDS011;38359;53.150;6.504;2023-07-22T00:43:48;27.27;;;10.40;;
52438;SDS011;38359;53.150;6.504;2023-07-22T00:54:14;18.42;;;8.85;;
52438;SDS011;38359;53.150;6.504;2023-07-22T01:04:40;18.40;;;8.95;;
52438;SDS011;38359;53.150;6.504;2023-07-22T01:15:06;18.52;;;7.40;;
52438;SDS011;38359;53.150;6.504;2023-07-22T01:25:33;16.67;;;7.60;;
52438;SDS011;38359;53.150;6.504;2023-07-22T01:35:59;25.27;;;7.35;;
52438;SDS011;38359;53.150;6.504;2023-07-22T01:46:27;16.30;;;7.07;;
52438;SDS011;38359;53.150;6.504;2023-07-22T01:56:53;20.33;;;7.88;;
52438;SDS011;38359;53.150;6.504;2023-07-22T02:07:19;16.42;;;8.30;;
52438;SDS011;38359;53.150;6.504;2023-07-22T02:17:45;18.83;;;7.75;;
52438;SDS011;38359;53.150;6.504;2023-07-22T02:28:11;21.27;;;7.78;;
52438;SDS011;38359;53.150;6.504;2023-07-22T02:38:37;23.08;;;8.15;;
52438;SDS011;38359;53.150;6.504;2023-07-22T02:49:03;17.38;;;7.47;;
52438;SDS011;38359;53.150;6.504;2023-07-22T02:59:28;21.25;;;7.82;;
52438;SDS011;38359;53.150;6.504;2023-07-22T03:09:54;16.58;;;8.57;;
52438;SDS011;38359;53.150;6.504;2023-07-22T03:20:20;25.00;;;9.80;;
52438;SDS011;38359;53.150;6.504;2023-07-22T03:30:56;20.77;;;8.98;;
52438;SDS011;38359;53.150;6.504;2023-07-22T03:41:22;23.58;;;9.52;;
52438;SDS011;38359;53.150;6.504;2023-07-22T03:51:48;21.65;;;9.25;;
52438;SDS011;38359;53.150;6.504;2023-07-22T04:02:13;23.67;;;10.30;;
52438;SDS011;38359;53.150;6.504;2023-07-22T04:12:39;17.83;;;8.57;;
52438;SDS011;38359;53.150;6.504;2023-07-22T04:23:05;20.15;;;8.52;;
52438;SDS011;38359;53.150;6.504;2023-07-22T04:33:31;16.23;;;8.90;;
52438;SDS011;38359;53.150;6.504;2023-07-22T04:43:57;19.77;;;8.30;;
52438;SDS011;38359;53.150;6.504;2023-07-22T04:54:23;21.52;;;9.07;;
52438;SDS011;38359;53.150;6.504;2023-07-22T05:04:49;16.80;;;8.73;;
52438;SDS011;38359;53.150;6.504;2023-07-22T05:15:15;23.38;;;8.88;;
52438;SDS011;38359;53.150;6.504;2023-07-22T05:25:41;30.77;;;9.30;;
52438;SDS011;38359;53.150;6.504;2023-07-22T05:36:06;23.65;;;8.98;;
52438;SDS011;38359;53.150;6.504;2023-07-22T05:46:32;18.30;;;9.45;;
52438;SDS011;38359;53.150;6.504;2023-07-22T05:56:58;18.77;;;9.75;;
52438;SDS011;38359;53.150;6.504;2023-07-22T06:07:24;27.75;;;11.45;;
52438;SDS011;38359;53.150;6.504;2023-07-22T06:17:50;23.92;;;11.52;;
52438;SDS011;38359;53.150;6.504;2023-07-22T06:28:16;29.15;;;11.98;;
52438;SDS011;38359;53.150;6.504;2023-07-22T06:38:42;24.25;;;13.07;;
52438;SDS011;38359;53.150;6.504;2023-07-22T06:49:08;28.08;;;12.68;;
52438;SDS011;38359;53.150;6.504;2023-07-22T06:59:34;20.40;;;10.90;;
52438;SDS011;38359;53.150;6.504;2023-07-22T07:09:59;18.70;;;10.77;;
52438;SDS011;38359;53.150;6.504;2023-07-22T07:20:26;19.00;;;10.82;;
52438;SDS011;38359;53.150;6.504;2023-07-22T07:30:52;22.17;;;10.75;;
52438;SDS011;38359;53.150;6.504;2023-07-22T07:41:18;22.27;;;12.07;;
52438;SDS011;38359;53.150;6.504;2023-07-22T07:51:44;25.38;;;12.23;;
52438;SDS011;38359;53.150;6.504;2023-07-22T08:02:09;21.63;;;10.70;;
52438;SDS011;38359;53.150;6.504;2023-07-22T08:12:35;18.02;;;9.30;;
52438;SDS011;38359;53.150;6.504;2023-07-22T08:23:02;16.63;;;8.88;;
52438;SDS011;38359;53.150;6.504;2023-07-22T08:33:28;14.63;;;8.20;;
52438;SDS011;38359;53.150;6.504;2023-07-22T08:43:54;15.68;;;7.30;;
52438;SDS011;38359;53.150;6.504;2023-07-22T08:54:24;14.15;;;6.80;;
52438;SDS011;38359;53.150;6.504;2023-07-22T09:04:51;12.48;;;6.43;;
52438;SDS011;38359;53.150;6.504;2023-07-22T09:15:17;11.73;;;5.95;;
52438;SDS011;38359;53.150;6.504;2023-07-22T09:25:43;25.55;;;9.80;;
52438;SDS011;38359;53.150;6.504;2023-07-22T09:36:09;26.63;;;12.70;;
52438;SDS011;38359;53.150;6.504;2023-07-22T09:46:36;19.42;;;9.60;;
52438;SDS011;38359;53.150;6.504;2023-07-22T09:57:02;20.08;;;9.55;;
52438;SDS011;38359;53.150;6.504;2023-07-22T10:07:30;16.85;;;9.48;;
52438;SDS011;38359;53.150;6.504;2023-07-22T10:18:00;16.70;;;9.30;;
52438;SDS011;38359;53.150;6.504;2023-07-22T10:28:27;11.98;;;7.18;;
52438;SDS011;38359;53.150;6.504;2023-07-22T10:38:57;11.18;;;7.47;;
52438;SDS011;38359;53.150;6.504;2023-07-22T10:49:24;8.88;;;6.32;;
52438;SDS011;38359;53.150;6.504;2023-07-22T11:10:53;12.40;;;8.00;;
52438;SDS011;38359;53.150;6.504;2023-07-22T11:21:20;13.30;;;7.90;;
52438;SDS011;38359;53.150;6.504;2023-07-22T11:31:46;16.50;;;8.43;;
52438;SDS011;38359;53.150;6.504;2023-07-22T11:42:14;19.30;;;10.07;;
52438;SDS011;38359;53.150;6.504;2023-07-22T11:52:40;18.10;;;11.40;;
52438;SDS011;38359;53.150;6.504;2023-07-22T12:03:06;19.63;;;11.10;;
52438;SDS011;38359;53.150;6.504;2023-07-22T12:13:35;14.82;;;10.63;;
52438;SDS011;38359;53.150;6.504;2023-07-22T12:24:02;20.90;;;11.52;;
52438;SDS011;38359;53.150;6.504;2023-07-22T12:34:31;20.27;;;10.70;;
52438;SDS011;38359;53.150;6.504;2023-07-22T12:44:56;18.80;;;9.73;;
52438;SDS011;38359;53.150;6.504;2023-07-22T12:55:22;15.43;;;9.15;;
52438;SDS011;38359;53.150;6.504;2023-07-22T13:05:48;21.25;;;10.95;;
52438;SDS011;38359;53.150;6.504;2023-07-22T13:16:14;15.55;;;9.93;;
52438;SDS011;38359;53.150;6.504;2023-07-22T13:26:39;18.63;;;11.30;;
52438;SDS011;38359;53.150;6.504;2023-07-22T13:37:05;16.63;;;11.75;;
52438;SDS011;38359;53.150;6.504;2023-07-22T13:47:31;18.83;;;11.93;;
52438;SDS011;38359;53.150;6.504;2023-07-22T13:57:57;17.40;;;10.70;;
52438;SDS011;38359;53.150;6.504;2023-07-22T14:08:23;19.10;;;9.38;;
52438;SDS011;38359;53.150;6.504;2023-07-22T14:18:49;13.00;;;8.32;;
52438;SDS011;38359;53.150;6.504;2023-07-22T14:29:16;19.95;;;7.90;;
52438;SDS011;38359;53.150;6.504;2023-07-22T14:39:42;17.33;;;8.43;;
52438;SDS011;38359;53.150;6.504;2023-07-22T14:50:08;14.32;;;7.07;;
52438;SDS011;38359;53.150;6.504;2023-07-22T15:00:36;9.93;;;3.88;;
52438;SDS011;38359;53.150;6.504;2023-07-22T15:11:01;10.45;;;3.80;;
52438;SDS011;38359;53.150;6.504;2023-07-22T15:21:27;11.02;;;4.68;;
52438;SDS011;38359;53.150;6.504;2023-07-22T15:31:53;19.63;;;6.80;;
52438;SDS011;38359;53.150;6.504;2023-07-22T15:42:19;18.17;;;8.27;;
52438;SDS011;38359;53.150;6.504;2023-07-22T15:52:45;13.32;;;6.75;;
52438;SDS011;38359;53.150;6.504;2023-07-22T16:03:11;12.20;;;6.32;;
52438;SDS011;38359;53.150;6.504;2023-07-22T16:13:37;21.63;;;6.43;;
52438;SDS011;38359;53.150;6.504;2023-07-22T16:24:03;11.50;;;5.25;;
52438;SDS011;38359;53.150;6.504;2023-07-22T16:34:29;20.52;;;8.60;;
52438;SDS011;38359;53.150;6.504;2023-07-22T16:44:55;12.55;;;5.40;;
52438;SDS011;38359;53.150;6.504;2023-07-22T16:55:20;21.55;;;11.57;;
52438;SDS011;38359;53.150;6.504;2023-07-22T17:05:46;20.75;;;9.05;;
52438;SDS011;38359;53.150;6.504;2023-07-22T17:16:13;16.60;;;6.75;;
52438;SDS011;38359;53.150;6.504;2023-07-22T17:26:39;8.43;;;5.22;;
52438;SDS011;38359;53.150;6.504;2023-07-22T17:37:05;12.50;;;5.22;;
52438;SDS011;38359;53.150;6.504;2023-07-22T17:47:31;12.20;;;5.70;;
52438;SDS011;38359;53.150;6.504;2023-07-22T17:57:57;14.13;;;5.90;;
52438;SDS011;38359;53.150;6.504;2023-07-22T18:08:22;15.18;;;6.25;;
52438;SDS011;38359;53.150;6.504;2023-07-22T18:18:48;9.48;;;5.90;;
52438;SDS011;38359;53.150;6.504;2023-07-22T18:29:14;14.18;;;6.47;;
52438;SDS011;38359;53.150;6.504;2023-07-22T18:39:40;14.75;;;6.63;;
52438;SDS011;38359;53.150;6.504;2023-07-22T18:50:06;11.95;;;6.53;;
52438;SDS011;38359;53.150;6.504;2023-07-22T19:00:33;17.08;;;6.68;;
52438;SDS011;38359;53.150;6.504;2023-07-22T19:10:58;17.83;;;7.72;;
52438;SDS011;38359;53.150;6.504;2023-07-22T19:21:24;16.42;;;7.97;;
52438;SDS011;38359;53.150;6.504;2023-07-22T19:31:50;15.27;;;8.57;;
52438;SDS011;38359;53.150;6.504;2023-07-22T19:42:17;19.50;;;9.40;;
52438;SDS011;38359;53.150;6.504;2023-07-22T19:52:42;13.73;;;6.88;;
52438;SDS011;38359;53.150;6.504;2023-07-22T20:03:08;12.63;;;5.60;;
52438;SDS011;38359;53.150;6.504;2023-07-22T20:13:35;10.93;;;5.50;;
52438;SDS011;38359;53.150;6.504;2023-07-22T20:24:01;16.88;;;7.05;;
52438;SDS011;38359;53.150;6.504;2023-07-22T20:34:27;18.80;;;8.27;;
52438;SDS011;38359;53.150;6.504;2023-07-22T20:44:53;12.77;;;6.22;;
52438;SDS011;38359;53.150;6.504;2023-07-22T20:55:19;16.30;;;7.03;;
52438;SDS011;38359;53.150;6.504;2023-07-22T21:05:54;10.93;;;6.10;;
52438;SDS011;38359;53.150;6.504;2023-07-22T21:16:21;16.98;;;6.53;;
52438;SDS011;38359;53.150;6.504;2023-07-22T21:26:47;21.70;;;6.55;;
52438;SDS011;38359;53.150;6.504;2023-07-22T21:37:14;18.33;;;7.75;;
52438;SDS011;38359;53.150;6.504;2023-07-22T21:47:39;20.52;;;9.93;;
52438;SDS011;38359;53.150;6.504;2023-07-22T21:58:05;24.50;;;12.30;;
52438;SDS011;38359;53.150;6.504;2023-07-22T22:08:32;20.00;;;11.90;;
52438;SDS011;38359;53.150;6.504;2023-07-22T22:18:58;20.65;;;8.80;;
52438;SDS011;38359;53.150;6.504;2023-07-22T22:29:24;17.15;;;7.32;;
52438;SDS011;38359;53.150;6.504;2023-07-22T22:39:50;17.00;;;7.68;;
52438;SDS011;38359;53.150;6.504;2023-07-22T22:50:15;15.40;;;8.30;;
52438;SDS011;38359;53.150;6.504;2023-07-22T23:00:41;22.08;;;8.75;;
52438;SDS011;38359;53.150;6.504;2023-07-22T23:11:11;31.05;;;9.63;;
52438;SDS011;38359;53.150;6.504;2023-07-22T23:21:40;17.00;;;9.57;;
52438;SDS011;38359;53.150;6.504;2023-07-22T23:32:06;13.98;;;8.02;;
52438;SDS011;38359;53.150;6.504;2023-07-22T23:42:33;17.83;;;8.60;;
52438;SDS011;38359;53.150;6.504;2023-07-22T23:53:00;20.02;;;9.20;;
